sensor_id;sensor_type;location;lat;lon;timestamp;temperature;humidity
46732;DHT22;32477;51.474;5.696;2024-02-15T00:02:15;12.20;99.90
46732;DHT22;32477;51.474;5.696;2024-02-15T00:04:41;12.20;99.90
46732;DHT22;32477;51.474;5.696;2024-02-15T00:07:07;12.20;99.90
46732;DHT22;32477;51.474;5.696;2024-02-15T00:09:33;12.20;99.90
46732;DHT22;32477;51.474;5.696;2024-02-15T00:11:59;12.10;99.90
46732;DHT22;32477;51.474;5.696;2024-02-15T00:14:26;12.20;99.90
46732;DHT22;32477;51.474;5.696;2024-02-15T00:16:53;12.10;99.90
46732;DHT22;32477;51.474;5.696;2024-02-15T00:19:18;12.10;99.90
46732;DHT22;32477;51.474;5.696;2024-02-15T00:21:44;12.10;99.90
46732;DHT22;32477;51.474;5.696;2024-02-15T00:24:10;12.10;99.90
46732;DHT22;32477;51.474;5.696;2024-02-15T00:26:36;12.10;99.90
46732;DHT22;32477;51.474;5.696;2024-02-15T00:29:01;12.00;99.90
46732;DHT22;32477;51.474;5.696;2024-02-15T00:31:27;12.10;99.90
46732;DHT22;32477;51.474;5.696;2024-02-15T00:33:53;12.10;99.90
46732;DHT22;32477;51.474;5.696;2024-02-15T00:36:19;12.00;99.90
46732;DHT22;32477;51.474;5.696;2024-02-15T00:38:45;12.00;99.90
46732;DHT22;32477;51.474;5.696;2024-02-15T00:41:10;12.00;99.90
46732;DHT22;32477;51.474;5.696;2024-02-15T00:43:36;12.00;99.90
46732;DHT22;32477;51.474;5.696;2024-02-15T00:46:02;12.00;99.90
46732;DHT22;32477;51.474;5.696;2024-02-15T00:48:28;12.00;99.90
46732;DHT22;32477;51.474;5.696;2024-02-15T00:50:57;12.00;99.90
46732;DHT22;32477;51.474;5.696;2024-02-15T00:53:23;12.10;99.90
46732;DHT22;32477;51.474;5.696;2024-02-15T00:55:49;12.00;99.90
46732;DHT22;32477;51.474;5.696;2024-02-15T00:58:14;12.10;99.90
46732;DHT22;32477;51.474;5.696;2024-02-15T01:00:40;12.20;99.90
46732;DHT22;32477;51.474;5.696;2024-02-15T01:03:05;12.10;99.90
46732;DHT22;32477;51.474;5.696;2024-02-15T01:05:31;12.20;99.90
46732;DHT22;32477;51.474;5.696;2024-02-15T01:07:57;12.20;99.90
46732;DHT22;32477;51.474;5.696;2024-02-15T01:10:23;12.20;99.90
46732;DHT22;32477;51.474;5.696;2024-02-15T01:12:50;12.20;99.90
46732;DHT22;32477;51.474;5.696;2024-02-15T01:15:15;12.10;99.90
46732;DHT22;32477;51.474;5.696;2024-02-15T01:17:45;12.20;99.90
46732;DHT22;32477;51.474;5.696;2024-02-15T01:20:12;12.20;99.90
46732;DHT22;32477;51.474;5.696;2024-02-15T01:22:38;12.20;99.90
46732;DHT22;32477;51.474;5.696;2024-02-15T01:25:04;12.20;99.90
46732;DHT22;32477;51.474;5.696;2024-02-15T01:27:29;12.20;99.90
46732;DHT22;32477;51.474;5.696;2024-02-15T01:29:58;12.20;99.90
46732;DHT22;32477;51.474;5.696;2024-02-15T01:32:24;12.20;99.90
46732;DHT22;32477;51.474;5.696;2024-02-15T01:34:51;12.20;99.90
46732;DHT22;32477;51.474;5.696;2024-02-15T01:37:17;12.20;99.90
46732;DHT22;32477;51.474;5.696;2024-02-15T01:39:42;12.30;99.90
46732;DHT22;32477;51.474;5.696;2024-02-15T01:42:08;12.30;99.90
46732;DHT22;32477;51.474;5.696;2024-02-15T01:44:34;12.30;99.90
46732;DHT22;32477;51.474;5.696;2024-02-15T01:47:02;12.20;99.90
46732;DHT22;32477;51.474;5.696;2024-02-15T01:49:30;12.20;99.90
46732;DHT22;32477;51.474;5.696;2024-02-15T01:51:56;12.20;99.90
46732;DHT22;32477;51.474;5.696;2024-02-15T01:54:23;12.10;99.90
46732;DHT22;32477;51.474;5.696;2024-02-15T01:56:49;12.10;99.90
46732;DHT22;32477;51.474;5.696;2024-02-15T01:59:15;12.10;99.90
46732;DHT22;32477;51.474;5.696;2024-02-15T02:01:42;12.10;99.90
46732;DHT22;32477;51.474;5.696;2024-02-15T02:04:08;12.10;99.90
46732;DHT22;32477;51.474;5.696;2024-02-15T02:06:34;12.10;99.90
46732;DHT22;32477;51.474;5.696;2024-02-15T02:09:00;12.10;99.90
46732;DHT22;32477;51.474;5.696;2024-02-15T02:11:27;12.10;99.90
46732;DHT22;32477;51.474;5.696;2024-02-15T02:13:55;12.20;99.90
46732;DHT22;32477;51.474;5.696;2024-02-15T02:16:28;12.20;99.90
46732;DHT22;32477;51.474;5.696;2024-02-15T02:18:58;12.30;99.90
46732;DHT22;32477;51.474;5.696;2024-02-15T02:21:27;12.30;99.90
46732;DHT22;32477;51.474;5.696;2024-02-15T02:23:56;12.30;99.90
46732;DHT22;32477;51.474;5.696;2024-02-15T02:26:24;12.30;99.90
46732;DHT22;32477;51.474;5.696;2024-02-15T02:28:51;12.30;99.90
46732;DHT22;32477;51.474;5.696;2024-02-15T02:31:19;12.30;99.90
46732;DHT22;32477;51.474;5.696;2024-02-15T02:33:53;12.30;99.90
46732;DHT22;32477;51.474;5.696;2024-02-15T02:36:19;12.40;99.90
46732;DHT22;32477;51.474;5.696;2024-02-15T02:38:45;12.30;99.90
46732;DHT22;32477;51.474;5.696;2024-02-15T02:41:13;12.20;99.90
46732;DHT22;32477;51.474;5.696;2024-02-15T02:43:40;12.20;99.90
46732;DHT22;32477;51.474;5.696;2024-02-15T02:46:06;12.10;99.90
46732;DHT22;32477;51.474;5.696;2024-02-15T02:48:32;12.00;99.90
46732;DHT22;32477;51.474;5.696;2024-02-15T02:50:58;12.00;99.90
46732;DHT22;32477;51.474;5.696;2024-02-15T02:53:24;12.00;99.90
46732;DHT22;32477;51.474;5.696;2024-02-15T02:55:51;11.90;99.90
46732;DHT22;32477;51.474;5.696;2024-02-15T02:58:17;11.90;99.90
46732;DHT22;32477;51.474;5.696;2024-02-15T03:00:42;11.90;99.90
46732;DHT22;32477;51.474;5.696;2024-02-15T03:03:08;12.00;99.90
46732;DHT22;32477;51.474;5.696;2024-02-15T03:05:35;11.90;99.90
46732;DHT22;32477;51.474;5.696;2024-02-15T03:08:00;11.90;99.90
46732;DHT22;32477;51.474;5.696;2024-02-15T03:10:26;11.90;99.90
46732;DHT22;32477;51.474;5.696;2024-02-15T03:12:51;11.90;99.90
46732;DHT22;32477;51.474;5.696;2024-02-15T03:15:18;11.90;99.90
46732;DHT22;32477;51.474;5.696;2024-02-15T03:17:45;12.00;99.90
46732;DHT22;32477;51.474;5.696;2024-02-15T03:20:11;12.00;99.90
46732;DHT22;32477;51.474;5.696;2024-02-15T03:22:55;12.00;99.90
46732;DHT22;32477;51.474;5.696;2024-02-15T03:25:22;11.90;99.90
46732;DHT22;32477;51.474;5.696;2024-02-15T03:27:51;12.00;99.90
46732;DHT22;32477;51.474;5.696;2024-02-15T03:30:18;11.90;99.90
46732;DHT22;32477;51.474;5.696;2024-02-15T03:32:45;12.00;99.90
46732;DHT22;32477;51.474;5.696;2024-02-15T03:35:14;12.00;99.90
46732;DHT22;32477;51.474;5.696;2024-02-15T03:37:40;12.00;99.90
46732;DHT22;32477;51.474;5.696;2024-02-15T03:40:07;12.00;99.90
46732;DHT22;32477;51.474;5.696;2024-02-15T03:42:36;12.00;99.90
46732;DHT22;32477;51.474;5.696;2024-02-15T03:45:05;12.10;99.90
46732;DHT22;32477;51.474;5.696;2024-02-15T03:47:35;12.10;99.90
46732;DHT22;32477;51.474;5.696;2024-02-15T03:50:08;12.10;99.90
46732;DHT22;32477;51.474;5.696;2024-02-15T03:52:35;12.10;99.90
46732;DHT22;32477;51.474;5.696;2024-02-15T03:55:01;12.20;99.90
46732;DHT22;32477;51.474;5.696;2024-02-15T03:57:27;12.10;99.90
46732;DHT22;32477;51.474;5.696;2024-02-15T03:59:53;12.10;99.90
46732;DHT22;32477;51.474;5.696;2024-02-15T04:02:23;12.10;99.90
46732;DHT22;32477;51.474;5.696;2024-02-15T04:04:49;12.10;99.90
46732;DHT22;32477;51.474;5.696;2024-02-15T04:07:18;12.10;99.90
46732;DHT22;32477;51.474;5.696;2024-02-15T04:09:45;12.10;99.90
46732;DHT22;32477;51.474;5.696;2024-02-15T04:12:11;12.20;99.90
46732;DHT22;32477;51.474;5.696;2024-02-15T04:14:37;12.20;99.90
46732;DHT22;32477;51.474;5.696;2024-02-15T04:17:04;12.20;99.90
46732;DHT22;32477;51.474;5.696;2024-02-15T04:19:33;12.20;99.90
46732;DHT22;32477;51.474;5.696;2024-02-15T04:21:59;12.20;99.90
46732;DHT22;32477;51.474;5.696;2024-02-15T04:24:33;12.30;99.90
46732;DHT22;32477;51.474;5.696;2024-02-15T04:27:00;12.30;99.90
46732;DHT22;32477;51.474;5.696;2024-02-15T04:29:25;12.30;99.90
46732;DHT22;32477;51.474;5.696;2024-02-15T04:31:51;12.30;99.90
46732;DHT22;32477;51.474;5.696;2024-02-15T04:34:17;12.30;99.90
46732;DHT22;32477;51.474;5.696;2024-02-15T04:36:47;12.20;99.90
46732;DHT22;32477;51.474;5.696;2024-02-15T04:39:19;12.20;99.90
46732;DHT22;32477;51.474;5.696;2024-02-15T04:41:53;12.20;99.90
46732;DHT22;32477;51.474;5.696;2024-02-15T04:44:19;12.20;99.90
46732;DHT22;32477;51.474;5.696;2024-02-15T04:46:52;12.10;99.90
46732;DHT22;32477;51.474;5.696;2024-02-15T04:49:18;12.10;99.90
46732;DHT22;32477;51.474;5.696;2024-02-15T04:51:44;12.10;99.90
46732;DHT22;32477;51.474;5.696;2024-02-15T04:54:10;12.00;99.90
46732;DHT22;32477;51.474;5.696;2024-02-15T04:56:42;12.00;99.90
46732;DHT22;32477;51.474;5.696;2024-02-15T04:59:11;12.00;99.90
46732;DHT22;32477;51.474;5.696;2024-02-15T05:01:40;12.00;99.90
46732;DHT22;32477;51.474;5.696;2024-02-15T05:04:08;12.00;99.90
46732;DHT22;32477;51.474;5.696;2024-02-15T05:06:33;12.00;99.90
46732;DHT22;32477;51.474;5.696;2024-02-15T05:08:59;11.90;99.90
46732;DHT22;32477;51.474;5.696;2024-02-15T05:11:25;12.00;99.90
46732;DHT22;32477;51.474;5.696;2024-02-15T05:13:51;12.00;99.90
46732;DHT22;32477;51.474;5.696;2024-02-15T05:16:18;12.00;99.90
46732;DHT22;32477;51.474;5.696;2024-02-15T05:18:44;11.90;99.90
46732;DHT22;32477;51.474;5.696;2024-02-15T05:21:11;11.90;99.90
46732;DHT22;32477;51.474;5.696;2024-02-15T05:23:40;11.90;99.90
46732;DHT22;32477;51.474;5.696;2024-02-15T05:26:08;11.90;99.90
46732;DHT22;32477;51.474;5.696;2024-02-15T05:28:34;11.90;99.90
46732;DHT22;32477;51.474;5.696;2024-02-15T05:31:18;11.90;99.90
46732;DHT22;32477;51.474;5.696;2024-02-15T05:33:49;12.00;99.90
46732;DHT22;32477;51.474;5.696;2024-02-15T05:36:16;12.00;99.90
46732;DHT22;32477;51.474;5.696;2024-02-15T05:38:51;12.00;99.90
46732;DHT22;32477;51.474;5.696;2024-02-15T05:41:17;12.00;99.90
46732;DHT22;32477;51.474;5.696;2024-02-15T05:43:45;12.00;99.90
46732;DHT22;32477;51.474;5.696;2024-02-15T05:46:12;12.00;99.90
46732;DHT22;32477;51.474;5.696;2024-02-15T05:48:38;12.00;99.90
46732;DHT22;32477;51.474;5.696;2024-02-15T05:51:05;12.00;99.90
46732;DHT22;32477;51.474;5.696;2024-02-15T05:53:32;12.00;99.90
46732;DHT22;32477;51.474;5.696;2024-02-15T05:56:05;12.10;99.90
46732;DHT22;32477;51.474;5.696;2024-02-15T05:58:32;12.10;99.90
46732;DHT22;32477;51.474;5.696;2024-02-15T06:00:58;12.10;99.90
46732;DHT22;32477;51.474;5.696;2024-02-15T06:03:31;12.10;99.90
46732;DHT22;32477;51.474;5.696;2024-02-15T06:06:03;12.10;99.90
46732;DHT22;32477;51.474;5.696;2024-02-15T06:08:32;12.10;99.90
46732;DHT22;32477;51.474;5.696;2024-02-15T06:10:59;12.10;99.90
46732;DHT22;32477;51.474;5.696;2024-02-15T06:13:26;12.00;99.90
46732;DHT22;32477;51.474;5.696;2024-02-15T06:15:52;12.00;99.90
46732;DHT22;32477;51.474;5.696;2024-02-15T06:18:27;12.00;99.90
46732;DHT22;32477;51.474;5.696;2024-02-15T06:20:55;12.00;99.90
46732;DHT22;32477;51.474;5.696;2024-02-15T06:23:23;12.00;99.90
46732;DHT22;32477;51.474;5.696;2024-02-15T06:25:51;12.00;99.90
46732;DHT22;32477;51.474;5.696;2024-02-15T06:28:21;11.90;99.90
46732;DHT22;32477;51.474;5.696;2024-02-15T06:31:08;11.90;99.90
46732;DHT22;32477;51.474;5.696;2024-02-15T06:33:53;11.90;99.90
46732;DHT22;32477;51.474;5.696;2024-02-15T06:36:52;11.90;99.90
46732;DHT22;32477;51.474;5.696;2024-02-15T06:39:37;12.00;99.90
46732;DHT22;32477;51.474;5.696;2024-02-15T06:42:11;12.00;99.90
46732;DHT22;32477;51.474;5.696;2024-02-15T06:44:40;11.90;99.90
46732;DHT22;32477;51.474;5.696;2024-02-15T06:47:06;11.90;99.90
46732;DHT22;32477;51.474;5.696;2024-02-15T06:49:32;11.90;99.90
46732;DHT22;32477;51.474;5.696;2024-02-15T06:52:01;11.90;99.90
46732;DHT22;32477;51.474;5.696;2024-02-15T06:54:28;11.90;99.90
46732;DHT22;32477;51.474;5.696;2024-02-15T06:56:53;11.90;99.90
46732;DHT22;32477;51.474;5.696;2024-02-15T06:59:20;11.90;99.90
46732;DHT22;32477;51.474;5.696;2024-02-15T07:01:51;12.00;99.90
46732;DHT22;32477;51.474;5.696;2024-02-15T07:04:20;12.00;99.90
46732;DHT22;32477;51.474;5.696;2024-02-15T07:06:46;12.00;99.90
46732;DHT22;32477;51.474;5.696;2024-02-15T07:09:14;12.00;99.90
46732;DHT22;32477;51.474;5.696;2024-02-15T07:11:45;12.00;99.90
46732;DHT22;32477;51.474;5.696;2024-02-15T07:14:12;12.00;99.90
46732;DHT22;32477;51.474;5.696;2024-02-15T07:16:38;12.00;99.90
46732;DHT22;32477;51.474;5.696;2024-02-15T07:19:04;12.10;99.90
46732;DHT22;32477;51.474;5.696;2024-02-15T07:21:29;12.00;99.90
46732;DHT22;32477;51.474;5.696;2024-02-15T07:23:57;12.00;99.90
46732;DHT22;32477;51.474;5.696;2024-02-15T07:26:24;12.00;99.90
46732;DHT22;32477;51.474;5.696;2024-02-15T07:28:52;12.00;99.90
46732;DHT22;32477;51.474;5.696;2024-02-15T07:31:19;12.00;99.90
46732;DHT22;32477;51.474;5.696;2024-02-15T07:33:50;12.00;99.90
46732;DHT22;32477;51.474;5.696;2024-02-15T07:36:20;12.00;99.90
46732;DHT22;32477;51.474;5.696;2024-02-15T07:38:47;12.00;99.90
46732;DHT22;32477;51.474;5.696;2024-02-15T07:41:14;11.90;99.90
46732;DHT22;32477;51.474;5.696;2024-02-15T07:43:40;11.90;99.90
46732;DHT22;32477;51.474;5.696;2024-02-15T07:46:06;12.00;99.90
46732;DHT22;32477;51.474;5.696;2024-02-15T07:48:32;12.00;99.90
46732;DHT22;32477;51.474;5.696;2024-02-15T07:50:57;12.00;99.90
46732;DHT22;32477;51.474;5.696;2024-02-15T07:53:26;12.00;99.90
46732;DHT22;32477;51.474;5.696;2024-02-15T07:55:51;12.00;99.90
46732;DHT22;32477;51.474;5.696;2024-02-15T07:58:18;12.00;99.90
46732;DHT22;32477;51.474;5.696;2024-02-15T08:00:45;12.10;99.90
46732;DHT22;32477;51.474;5.696;2024-02-15T08:03:11;12.10;99.90
46732;DHT22;32477;51.474;5.696;2024-02-15T08:05:37;12.00;99.90
46732;DHT22;32477;51.474;5.696;2024-02-15T08:08:03;12.00;99.90
46732;DHT22;32477;51.474;5.696;2024-02-15T08:10:29;12.00;99.90
46732;DHT22;32477;51.474;5.696;2024-02-15T08:12:55;12.00;99.90
46732;DHT22;32477;51.474;5.696;2024-02-15T08:15:23;12.00;99.90
46732;DHT22;32477;51.474;5.696;2024-02-15T08:17:49;12.00;99.90
46732;DHT22;32477;51.474;5.696;2024-02-15T08:20:15;12.00;99.90
46732;DHT22;32477;51.474;5.696;2024-02-15T08:22:46;12.10;99.90
46732;DHT22;32477;51.474;5.696;2024-02-15T08:25:13;12.10;99.90
46732;DHT22;32477;51.474;5.696;2024-02-15T08:27:42;12.10;99.90
46732;DHT22;32477;51.474;5.696;2024-02-15T08:30:12;12.20;99.90
46732;DHT22;32477;51.474;5.696;2024-02-15T08:32:39;12.30;99.90
46732;DHT22;32477;51.474;5.696;2024-02-15T08:35:09;12.40;99.90
46732;DHT22;32477;51.474;5.696;2024-02-15T08:37:36;12.50;99.90
46732;DHT22;32477;51.474;5.696;2024-02-15T08:40:05;12.50;99.90
46732;DHT22;32477;51.474;5.696;2024-02-15T08:42:41;12.60;99.90
46732;DHT22;32477;51.474;5.696;2024-02-15T08:45:08;12.60;99.90
46732;DHT22;32477;51.474;5.696;2024-02-15T08:47:42;12.70;99.90
46732;DHT22;32477;51.474;5.696;2024-02-15T08:50:10;12.80;99.90
46732;DHT22;32477;51.474;5.696;2024-02-15T08:52:39;12.80;99.90
46732;DHT22;32477;51.474;5.696;2024-02-15T08:55:06;12.80;99.90
46732;DHT22;32477;51.474;5.696;2024-02-15T08:57:33;12.90;99.90
46732;DHT22;32477;51.474;5.696;2024-02-15T08:59:59;12.90;99.90
46732;DHT22;32477;51.474;5.696;2024-02-15T09:02:24;12.90;99.90
46732;DHT22;32477;51.474;5.696;2024-02-15T09:04:50;13.00;99.90
46732;DHT22;32477;51.474;5.696;2024-02-15T09:07:16;13.00;99.90
46732;DHT22;32477;51.474;5.696;2024-02-15T09:09:41;13.10;99.90
46732;DHT22;32477;51.474;5.696;2024-02-15T09:12:07;13.00;99.90
46732;DHT22;32477;51.474;5.696;2024-02-15T09:14:33;13.00;99.90
46732;DHT22;32477;51.474;5.696;2024-02-15T09:17:00;13.00;99.90
46732;DHT22;32477;51.474;5.696;2024-02-15T09:19:26;13.00;99.90
46732;DHT22;32477;51.474;5.696;2024-02-15T09:21:52;13.00;99.90
46732;DHT22;32477;51.474;5.696;2024-02-15T09:24:19;13.00;99.90
46732;DHT22;32477;51.474;5.696;2024-02-15T09:26:44;13.00;99.90
46732;DHT22;32477;51.474;5.696;2024-02-15T09:29:10;13.10;99.90
46732;DHT22;32477;51.474;5.696;2024-02-15T09:31:36;13.10;99.90
46732;DHT22;32477;51.474;5.696;2024-02-15T09:34:02;13.10;99.90
46732;DHT22;32477;51.474;5.696;2024-02-15T09:36:34;13.20;99.90
46732;DHT22;32477;51.474;5.696;2024-02-15T09:39:00;13.20;99.90
46732;DHT22;32477;51.474;5.696;2024-02-15T09:41:26;13.40;99.90
46732;DHT22;32477;51.474;5.696;2024-02-15T09:43:51;13.50;99.90
46732;DHT22;32477;51.474;5.696;2024-02-15T09:46:17;13.50;99.90
46732;DHT22;32477;51.474;5.696;2024-02-15T09:48:47;13.60;99.90
46732;DHT22;32477;51.474;5.696;2024-02-15T09:51:16;13.60;99.90
46732;DHT22;32477;51.474;5.696;2024-02-15T09:53:43;13.70;99.90
46732;DHT22;32477;51.474;5.696;2024-02-15T09:56:09;13.70;99.90
46732;DHT22;32477;51.474;5.696;2024-02-15T09:58:36;13.70;99.90
46732;DHT22;32477;51.474;5.696;2024-02-15T10:01:04;13.70;99.90
46732;DHT22;32477;51.474;5.696;2024-02-15T10:03:37;13.80;99.90
46732;DHT22;32477;51.474;5.696;2024-02-15T10:06:02;13.80;99.90
46732;DHT22;32477;51.474;5.696;2024-02-15T10:08:29;13.70;99.90
46732;DHT22;32477;51.474;5.696;2024-02-15T10:11:08;13.70;99.90
46732;DHT22;32477;51.474;5.696;2024-02-15T10:13:34;13.70;99.90
46732;DHT22;32477;51.474;5.696;2024-02-15T10:18:39;13.70;99.90
46732;DHT22;32477;51.474;5.696;2024-02-15T10:21:05;13.70;99.90
46732;DHT22;32477;51.474;5.696;2024-02-15T10:23:30;13.70;99.90
46732;DHT22;32477;51.474;5.696;2024-02-15T10:25:56;13.70;99.90
46732;DHT22;32477;51.474;5.696;2024-02-15T10:28:24;13.60;99.90
46732;DHT22;32477;51.474;5.696;2024-02-15T10:30:50;13.70;99.90
46732;DHT22;32477;51.474;5.696;2024-02-15T10:33:19;13.80;99.90
46732;DHT22;32477;51.474;5.696;2024-02-15T10:35:46;13.80;99.90
46732;DHT22;32477;51.474;5.696;2024-02-15T10:38:12;13.80;99.90
46732;DHT22;32477;51.474;5.696;2024-02-15T10:40:39;13.80;99.90
46732;DHT22;32477;51.474;5.696;2024-02-15T10:43:08;13.80;99.90
46732;DHT22;32477;51.474;5.696;2024-02-15T10:45:36;13.90;99.90
46732;DHT22;32477;51.474;5.696;2024-02-15T10:48:05;14.00;99.90
46732;DHT22;32477;51.474;5.696;2024-02-15T10:50:31;14.10;99.90
46732;DHT22;32477;51.474;5.696;2024-02-15T10:52:58;14.20;99.90
46732;DHT22;32477;51.474;5.696;2024-02-15T10:55:48;14.20;99.90
46732;DHT22;32477;51.474;5.696;2024-02-15T10:58:20;14.30;99.90
46732;DHT22;32477;51.474;5.696;2024-02-15T11:00:50;14.50;99.90
46732;DHT22;32477;51.474;5.696;2024-02-15T11:03:25;14.60;99.90
46732;DHT22;32477;51.474;5.696;2024-02-15T11:05:55;14.60;99.90
46732;DHT22;32477;51.474;5.696;2024-02-15T11:08:23;14.70;99.90
46732;DHT22;32477;51.474;5.696;2024-02-15T11:10:49;14.70;99.90
46732;DHT22;32477;51.474;5.696;2024-02-15T11:13:15;14.80;99.90
46732;DHT22;32477;51.474;5.696;2024-02-15T11:15:45;14.80;99.90
46732;DHT22;32477;51.474;5.696;2024-02-15T11:21:15;14.90;99.90
46732;DHT22;32477;51.474;5.696;2024-02-15T11:23:41;15.10;99.90
46732;DHT22;32477;51.474;5.696;2024-02-15T11:26:08;15.20;99.90
46732;DHT22;32477;51.474;5.696;2024-02-15T11:28:36;15.30;99.90
46732;DHT22;32477;51.474;5.696;2024-02-15T11:31:06;15.30;99.90
46732;DHT22;32477;51.474;5.696;2024-02-15T11:33:33;15.30;99.90
46732;DHT22;32477;51.474;5.696;2024-02-15T11:36:12;15.40;99.90
46732;DHT22;32477;51.474;5.696;2024-02-15T11:38:39;15.50;99.90
46732;DHT22;32477;51.474;5.696;2024-02-15T11:41:09;15.50;99.90
46732;DHT22;32477;51.474;5.696;2024-02-15T11:46:19;15.80;99.90
46732;DHT22;32477;51.474;5.696;2024-02-15T11:48:48;15.90;99.90
46732;DHT22;32477;51.474;5.696;2024-02-15T11:51:34;16.20;99.90
46732;DHT22;32477;51.474;5.696;2024-02-15T11:54:09;16.40;99.90
46732;DHT22;32477;51.474;5.696;2024-02-15T11:56:52;16.40;99.90
46732;DHT22;32477;51.474;5.696;2024-02-15T11:59:43;16.40;99.90
46732;DHT22;32477;51.474;5.696;2024-02-15T12:02:28;16.50;99.90
46732;DHT22;32477;51.474;5.696;2024-02-15T12:05:12;16.50;99.90
46732;DHT22;32477;51.474;5.696;2024-02-15T12:07:58;16.70;99.90
46732;DHT22;32477;51.474;5.696;2024-02-15T12:10:43;16.80;99.90
46732;DHT22;32477;51.474;5.696;2024-02-15T12:13:26;16.80;99.90
46732;DHT22;32477;51.474;5.696;2024-02-15T12:16:15;17.00;99.90
46732;DHT22;32477;51.474;5.696;2024-02-15T12:19:00;17.00;99.90
46732;DHT22;32477;51.474;5.696;2024-02-15T12:21:26;17.00;99.90
46732;DHT22;32477;51.474;5.696;2024-02-15T12:23:53;17.00;99.90
46732;DHT22;32477;51.474;5.696;2024-02-15T12:26:19;17.10;99.90
46732;DHT22;32477;51.474;5.696;2024-02-15T12:28:50;17.20;99.90
46732;DHT22;32477;51.474;5.696;2024-02-15T12:31:17;17.30;99.90
46732;DHT22;32477;51.474;5.696;2024-02-15T12:33:44;17.40;99.90
46732;DHT22;32477;51.474;5.696;2024-02-15T12:36:10;17.30;99.90
46732;DHT22;32477;51.474;5.696;2024-02-15T12:38:35;17.30;99.90
46732;DHT22;32477;51.474;5.696;2024-02-15T12:41:19;17.30;99.90
46732;DHT22;32477;51.474;5.696;2024-02-15T12:43:45;17.30;99.90
46732;DHT22;32477;51.474;5.696;2024-02-15T12:46:11;17.40;99.90
46732;DHT22;32477;51.474;5.696;2024-02-15T12:48:38;17.40;99.90
46732;DHT22;32477;51.474;5.696;2024-02-15T12:51:24;17.30;99.90
46732;DHT22;32477;51.474;5.696;2024-02-15T12:53:50;17.40;99.90
46732;DHT22;32477;51.474;5.696;2024-02-15T12:56:22;17.40;99.90
46732;DHT22;32477;51.474;5.696;2024-02-15T12:58:49;17.30;99.90
46732;DHT22;32477;51.474;5.696;2024-02-15T13:01:15;17.20;99.90
46732;DHT22;32477;51.474;5.696;2024-02-15T13:03:41;17.30;99.90
46732;DHT22;32477;51.474;5.696;2024-02-15T13:06:07;17.40;99.90
46732;DHT22;32477;51.474;5.696;2024-02-15T13:08:33;17.50;99.90
46732;DHT22;32477;51.474;5.696;2024-02-15T13:10:59;17.70;99.90
46732;DHT22;32477;51.474;5.696;2024-02-15T13:13:28;17.80;99.90
46732;DHT22;32477;51.474;5.696;2024-02-15T13:15:53;18.00;99.90
46732;DHT22;32477;51.474;5.696;2024-02-15T13:18:20;18.00;99.90
46732;DHT22;32477;51.474;5.696;2024-02-15T13:20:47;17.90;99.90
46732;DHT22;32477;51.474;5.696;2024-02-15T13:23:17;17.80;99.90
46732;DHT22;32477;51.474;5.696;2024-02-15T13:25:51;17.70;99.90
46732;DHT22;32477;51.474;5.696;2024-02-15T13:28:18;17.70;99.90
46732;DHT22;32477;51.474;5.696;2024-02-15T13:30:44;17.70;99.90
46732;DHT22;32477;51.474;5.696;2024-02-15T13:33:14;17.80;99.90
46732;DHT22;32477;51.474;5.696;2024-02-15T13:35:39;18.00;99.90
46732;DHT22;32477;51.474;5.696;2024-02-15T13:38:06;18.10;99.90
46732;DHT22;32477;51.474;5.696;2024-02-15T13:40:34;18.10;99.90
46732;DHT22;32477;51.474;5.696;2024-02-15T13:43:00;18.10;99.90
46732;DHT22;32477;51.474;5.696;2024-02-15T13:45:41;18.10;99.90
46732;DHT22;32477;51.474;5.696;2024-02-15T13:48:08;18.10;99.90
46732;DHT22;32477;51.474;5.696;2024-02-15T13:50:34;18.70;99.90
46732;DHT22;32477;51.474;5.696;2024-02-15T13:53:00;19.10;99.90
46732;DHT22;32477;51.474;5.696;2024-02-15T13:55:27;19.10;99.90
46732;DHT22;32477;51.474;5.696;2024-02-15T13:57:54;19.10;99.90
46732;DHT22;32477;51.474;5.696;2024-02-15T14:00:22;19.00;99.90
46732;DHT22;32477;51.474;5.696;2024-02-15T14:02:52;18.80;99.90
46732;DHT22;32477;51.474;5.696;2024-02-15T14:05:19;18.50;99.90
46732;DHT22;32477;51.474;5.696;2024-02-15T14:07:49;18.40;99.90
46732;DHT22;32477;51.474;5.696;2024-02-15T14:10:16;18.00;99.90
46732;DHT22;32477;51.474;5.696;2024-02-15T14:12:46;17.90;99.90
46732;DHT22;32477;51.474;5.696;2024-02-15T14:15:12;17.60;99.90
46732;DHT22;32477;51.474;5.696;2024-02-15T14:17:38;17.50;99.90
46732;DHT22;32477;51.474;5.696;2024-02-15T14:20:05;17.50;99.90
46732;DHT22;32477;51.474;5.696;2024-02-15T14:22:37;17.40;99.90
46732;DHT22;32477;51.474;5.696;2024-02-15T14:25:03;17.40;99.90
46732;DHT22;32477;51.474;5.696;2024-02-15T14:27:31;17.40;99.90
46732;DHT22;32477;51.474;5.696;2024-02-15T14:29:57;17.40;99.90
46732;DHT22;32477;51.474;5.696;2024-02-15T14:32:42;17.40;99.90
46732;DHT22;32477;51.474;5.696;2024-02-15T14:35:36;17.30;99.90
46732;DHT22;32477;51.474;5.696;2024-02-15T14:38:03;17.30;99.90
46732;DHT22;32477;51.474;5.696;2024-02-15T14:40:35;17.30;99.90
46732;DHT22;32477;51.474;5.696;2024-02-15T14:43:02;17.30;99.90
46732;DHT22;32477;51.474;5.696;2024-02-15T14:45:30;17.20;99.90
46732;DHT22;32477;51.474;5.696;2024-02-15T14:47:58;17.20;99.90
46732;DHT22;32477;51.474;5.696;2024-02-15T14:50:23;17.00;99.90
46732;DHT22;32477;51.474;5.696;2024-02-15T14:52:49;17.00;99.90
46732;DHT22;32477;51.474;5.696;2024-02-15T14:55:15;16.90;99.90
46732;DHT22;32477;51.474;5.696;2024-02-15T14:57:42;16.90;99.90
46732;DHT22;32477;51.474;5.696;2024-02-15T15:00:08;16.90;99.90
46732;DHT22;32477;51.474;5.696;2024-02-15T15:02:46;16.90;99.90
46732;DHT22;32477;51.474;5.696;2024-02-15T15:05:13;16.90;99.90
46732;DHT22;32477;51.474;5.696;2024-02-15T15:07:57;16.80;99.90
46732;DHT22;32477;51.474;5.696;2024-02-15T15:10:41;16.70;99.90
46732;DHT22;32477;51.474;5.696;2024-02-15T15:13:25;16.70;99.90
46732;DHT22;32477;51.474;5.696;2024-02-15T15:15:51;16.60;99.90
46732;DHT22;32477;51.474;5.696;2024-02-15T15:18:17;16.60;99.90
46732;DHT22;32477;51.474;5.696;2024-02-15T15:20:44;16.50;99.90
46732;DHT22;32477;51.474;5.696;2024-02-15T15:23:09;16.50;99.90
46732;DHT22;32477;51.474;5.696;2024-02-15T15:25:36;16.50;99.90
46732;DHT22;32477;51.474;5.696;2024-02-15T15:28:03;16.60;99.90
46732;DHT22;32477;51.474;5.696;2024-02-15T15:30:29;16.60;99.90
46732;DHT22;32477;51.474;5.696;2024-02-15T15:32:56;16.60;99.90
46732;DHT22;32477;51.474;5.696;2024-02-15T15:35:22;16.90;99.90
46732;DHT22;32477;51.474;5.696;2024-02-15T15:37:49;17.30;99.90
46732;DHT22;32477;51.474;5.696;2024-02-15T15:40:17;17.50;99.90
46732;DHT22;32477;51.474;5.696;2024-02-15T15:42:43;17.40;99.90
46732;DHT22;32477;51.474;5.696;2024-02-15T15:45:12;17.20;99.90
46732;DHT22;32477;51.474;5.696;2024-02-15T15:47:38;16.90;99.90